createdAt,value
2018-05-29T00:02:15.230Z,99.90
2018-05-29T00:04:48.764Z,99.90
2018-05-29T00:07:22.331Z,99.90
2018-05-29T00:09:55.924Z,99.90
2018-05-29T00:12:29.455Z,99.90
2018-05-29T00:15:03.044Z,99.90
2018-05-29T00:17:36.570Z,99.90
2018-05-29T00:20:10.146Z,99.90
2018-05-29T00:22:43.804Z,99.90
2018-05-29T00:25:17.356Z,99.90
2018-05-29T00:27:50.911Z,99.90
2018-05-29T00:30:24.522Z,99.90
2018-05-29T00:32:58.026Z,99.90
2018-05-29T00:35:31.506Z,99.90
2018-05-29T00:38:05.033Z,99.90
2018-05-29T00:40:38.627Z,99.90
2018-05-29T00:43:12.122Z,99.90
2018-05-29T00:45:45.656Z,99.90
2018-05-29T00:48:19.378Z,99.90
2018-05-29T00:50:52.905Z,99.90
2018-05-29T00:53:26.516Z,99.90
2018-05-29T00:56:00.051Z,99.90
2018-05-29T00:58:33.627Z,99.90
2018-05-29T01:01:07.394Z,99.90
2018-05-29T01:03:41.746Z,99.90
2018-05-29T01:06:15.359Z,99.90
2018-05-29T01:08:48.892Z,99.90
2018-05-29T01:11:22.435Z,99.90
2018-05-29T01:13:56.761Z,99.90
2018-05-29T01:16:30.365Z,99.90
2018-05-29T01:19:03.873Z,99.90
2018-05-29T01:21:38.204Z,99.90
2018-05-29T01:24:11.869Z,99.90
2018-05-29T01:26:45.466Z,99.90
2018-05-29T01:29:19.783Z,99.90
2018-05-29T01:31:53.539Z,99.90
2018-05-29T01:34:27.144Z,99.90
2018-05-29T01:37:00.676Z,99.90
2018-05-29T01:39:34.243Z,99.90
2018-05-29T01:42:08.042Z,99.90
2018-05-29T01:44:41.618Z,99.90
2018-05-29T01:47:15.133Z,99.90
2018-05-29T01:49:48.850Z,99.90
2018-05-29T01:52:22.462Z,99.90
2018-05-29T01:54:56.843Z,99.90
2018-05-29T01:57:30.591Z,99.90
2018-05-29T02:00:04.164Z,99.90
2018-05-29T02:02:37.671Z,99.90
2018-05-29T02:05:11.214Z,99.90
2018-05-29T02:07:44.785Z,99.90
2018-05-29T02:10:18.314Z,99.90
2018-05-29T02:12:51.935Z,99.90
2018-05-29T02:15:25.527Z,99.90
2018-05-29T02:17:59.080Z,99.90
2018-05-29T02:20:32.645Z,99.90
2018-05-29T02:23:06.206Z,99.90
2018-05-29T02:25:39.973Z,99.90
2018-05-29T02:28:13.598Z,99.90
2018-05-29T02:30:47.132Z,99.90
2018-05-29T02:33:20.709Z,99.90
2018-05-29T02:35:55.004Z,99.90
2018-05-29T02:38:28.614Z,99.90
2018-05-29T02:41:02.154Z,99.90
2018-05-29T02:43:35.696Z,99.90
2018-05-29T02:46:09.226Z,99.90
2018-05-29T02:48:42.905Z,99.90
2018-05-29T02:51:16.506Z,99.90
2018-05-29T02:53:50.062Z,99.90
2018-05-29T02:56:23.655Z,99.90
2018-05-29T02:58:57.307Z,99.90
2018-05-29T03:01:31.666Z,99.90
2018-05-29T03:04:06.112Z,99.90
2018-05-29T03:06:39.642Z,99.90
2018-05-29T03:09:13.207Z,99.90
2018-05-29T03:11:46.719Z,99.90
2018-05-29T03:14:20.423Z,99.90
2018-05-29T03:16:54.002Z,99.90
2018-05-29T03:19:27.712Z,99.90
2018-05-29T03:22:01.296Z,99.90
2018-05-29T03:24:34.961Z,99.90
2018-05-29T03:27:08.509Z,99.90
2018-05-29T03:29:42.070Z,99.90
2018-05-29T03:32:15.843Z,99.90
2018-05-29T03:34:49.463Z,99.90
2018-05-29T03:37:23.012Z,99.90
2018-05-29T03:39:56.634Z,99.90
2018-05-29T03:42:30.206Z,99.90
2018-05-29T03:45:03.831Z,99.90
2018-05-29T03:47:37.391Z,99.90
2018-05-29T03:50:10.918Z,99.90
2018-05-29T03:52:44.464Z,99.90
2018-05-29T03:55:18.851Z,99.90
2018-05-29T03:57:53.251Z,99.90
2018-05-29T04:00:27.507Z,99.90
2018-05-29T04:03:01.801Z,99.90
2018-05-29T04:05:35.494Z,99.90
2018-05-29T04:08:09.201Z,99.90
2018-05-29T04:10:42.713Z,99.90
2018-05-29T04:13:17.077Z,99.90
2018-05-29T04:15:50.850Z,99.90
2018-05-29T04:18:24.291Z,99.90
2018-05-29T04:20:57.844Z,99.90
2018-05-29T04:23:31.388Z,99.90
2018-05-29T04:26:05.011Z,99.90
2018-05-29T04:28:38.584Z,99.90
2018-05-29T04:31:12.084Z,99.90
2018-05-29T04:33:45.625Z,99.90
2018-05-29T04:36:19.228Z,99.90
2018-05-29T04:38:52.754Z,99.90
2018-05-29T04:41:27.142Z,99.90
2018-05-29T04:44:00.847Z,99.90
2018-05-29T04:46:35.273Z,99.90
2018-05-29T04:49:08.864Z,99.90
2018-05-29T04:51:42.380Z,99.90
2018-05-29T04:54:15.996Z,99.90
2018-05-29T04:56:49.640Z,99.90
2018-05-29T04:59:23.982Z,99.90
2018-05-29T05:01:58.375Z,99.90
2018-05-29T05:04:32.039Z,99.90
2018-05-29T05:07:05.613Z,99.90
2018-05-29T05:09:39.174Z,99.90
2018-05-29T05:12:12.736Z,99.90
2018-05-29T05:14:46.300Z,99.90
2018-05-29T05:17:19.994Z,99.90
2018-05-29T05:19:53.541Z,99.90
2018-05-29T05:22:27.099Z,99.90
2018-05-29T05:25:00.632Z,99.90
2018-05-29T05:27:34.171Z,99.90
2018-05-29T05:30:07.857Z,99.90
2018-05-29T05:32:42.209Z,99.90
2018-05-29T05:35:15.934Z,99.90
2018-05-29T05:37:49.492Z,99.90
2018-05-29T05:40:23.049Z,99.90
2018-05-29T05:42:56.626Z,99.90
2018-05-29T05:45:30.306Z,99.90
2018-05-29T05:48:03.925Z,99.90
2018-05-29T05:50:37.514Z,99.90
2018-05-29T05:53:11.126Z,99.90
2018-05-29T05:55:45.438Z,99.90
2018-05-29T05:58:19.118Z,99.90
2018-05-29T06:00:52.660Z,99.90
2018-05-29T06:03:26.227Z,99.90
2018-05-29T06:06:00.659Z,99.90
2018-05-29T06:08:34.343Z,99.90
2018-05-29T06:11:07.927Z,99.90
2018-05-29T06:13:41.478Z,99.90
2018-05-29T06:16:15.779Z,99.90
2018-05-29T06:18:49.283Z,99.90
2018-05-29T06:21:23.583Z,99.90
2018-05-29T06:23:57.341Z,99.90
2018-05-29T06:26:31.704Z,99.90
2018-05-29T06:29:05.355Z,99.90
2018-05-29T06:31:38.937Z,99.90
2018-05-29T06:34:12.606Z,99.90
2018-05-29T06:36:46.148Z,99.90
2018-05-29T06:39:19.745Z,99.90
2018-05-29T06:41:53.275Z,99.90
2018-05-29T06:44:26.858Z,99.90
2018-05-29T06:47:00.428Z,99.90
2018-05-29T06:49:34.018Z,99.90
2018-05-29T06:52:08.544Z,99.90
2018-05-29T06:54:42.967Z,99.90
2018-05-29T06:57:16.468Z,99.90
2018-05-29T06:59:50.028Z,99.90
2018-05-29T07:02:23.694Z,99.90
2018-05-29T07:04:57.265Z,99.90
2018-05-29T07:07:30.809Z,99.90
2018-05-29T07:10:04.358Z,99.90
2018-05-29T07:12:37.902Z,99.90
2018-05-29T07:15:11.615Z,99.90
2018-05-29T07:17:45.183Z,99.90
2018-05-29T07:20:18.723Z,99.90
2018-05-29T07:22:52.280Z,99.90
2018-05-29T07:25:25.856Z,99.90
2018-05-29T07:27:59.429Z,99.90
2018-05-29T07:30:33.000Z,99.90
2018-05-29T07:33:07.267Z,99.90
2018-05-29T07:35:40.939Z,99.90
2018-05-29T07:38:14.504Z,99.90
2018-05-29T07:40:48.807Z,99.90
2018-05-29T07:43:22.472Z,99.90
2018-05-29T07:45:56.017Z,99.90
2018-05-29T07:48:29.533Z,99.90
2018-05-29T07:51:03.110Z,99.90
2018-05-29T07:53:36.713Z,99.90
2018-05-29T07:56:10.650Z,99.90
2018-05-29T07:58:44.465Z,99.90
2018-05-29T08:01:17.979Z,99.90
2018-05-29T08:03:51.567Z,99.90
2018-05-29T08:06:25.172Z,99.90
2018-05-29T08:08:58.720Z,99.90
2018-05-29T08:11:32.321Z,99.90
2018-05-29T08:14:05.857Z,99.90
2018-05-29T08:16:39.449Z,99.90
2018-05-29T08:19:12.968Z,99.90
2018-05-29T08:21:46.518Z,99.90
2018-05-29T08:24:20.038Z,99.90
2018-05-29T08:26:53.538Z,99.90
2018-05-29T08:29:27.115Z,99.90
2018-05-29T08:32:00.776Z,99.90
2018-05-29T08:34:34.411Z,99.90
2018-05-29T08:37:08.007Z,99.90
2018-05-29T08:39:41.873Z,99.90
2018-05-29T08:42:15.588Z,98.60
2018-05-29T08:44:49.130Z,99.10
2018-05-29T08:47:22.641Z,99.50
2018-05-29T08:49:56.203Z,98.00
2018-05-29T08:52:29.801Z,98.50
2018-05-29T08:55:03.497Z,97.20
2018-05-29T08:57:37.839Z,95.60
2018-05-29T09:00:11.470Z,95.60
2018-05-29T09:02:45.137Z,95.00
2018-05-29T09:05:18.692Z,94.20
2018-05-29T09:07:52.973Z,95.60
2018-05-29T09:10:27.264Z,96.50
2018-05-29T09:13:00.848Z,96.10
2018-05-29T09:15:34.391Z,93.50
2018-05-29T09:18:07.976Z,92.10
2018-05-29T09:20:41.514Z,92.90
2018-05-29T09:23:15.087Z,92.20
2018-05-29T09:25:49.410Z,93.10
2018-05-29T09:28:23.017Z,93.00
2018-05-29T09:30:57.522Z,93.10
2018-05-29T09:33:31.095Z,93.10
2018-05-29T09:36:04.640Z,93.00
2018-05-29T09:38:38.248Z,93.00
2018-05-29T09:41:11.928Z,91.70
2018-05-29T09:43:46.310Z,93.50
2018-05-29T09:46:19.907Z,93.50
2018-05-29T09:48:53.442Z,91.90
2018-05-29T09:51:26.950Z,91.30
2018-05-29T09:54:00.574Z,90.90
2018-05-29T09:56:34.274Z,91.70
2018-05-29T09:59:07.953Z,90.80
2018-05-29T10:01:41.465Z,91.40
2018-05-29T10:04:15.030Z,90.30
2018-05-29T10:06:48.621Z,89.20
2018-05-29T10:09:22.356Z,88.50
2018-05-29T10:11:56.040Z,86.80
2018-05-29T10:14:29.714Z,85.40
2018-05-29T10:17:03.397Z,88.20
2018-05-29T10:19:37.078Z,84.20
2018-05-29T10:22:10.693Z,80.50
2018-05-29T10:24:44.337Z,81.70
2018-05-29T10:27:18.799Z,84.30
2018-05-29T10:29:52.296Z,84.30
2018-05-29T10:32:26.625Z,89.10
2018-05-29T10:35:00.252Z,89.10
2018-05-29T10:37:34.515Z,88.00
2018-05-29T10:40:08.144Z,87.80
2018-05-29T10:42:41.693Z,89.30
2018-05-29T10:45:15.218Z,87.10
2018-05-29T10:47:48.965Z,86.90
2018-05-29T10:50:23.271Z,90.00
2018-05-29T10:52:57.571Z,86.60
2018-05-29T10:55:31.100Z,86.60
2018-05-29T10:58:04.634Z,83.90
2018-05-29T11:00:38.978Z,90.90
2018-05-29T11:03:12.589Z,90.90
2018-05-29T11:05:46.310Z,90.80
2018-05-29T11:08:20.675Z,91.20
2018-05-29T11:10:54.190Z,91.20
2018-05-29T11:13:27.945Z,90.00
2018-05-29T11:16:01.719Z,89.60
2018-05-29T11:18:36.138Z,91.20
2018-05-29T11:21:11.037Z,90.00
2018-05-29T11:23:44.677Z,90.00
2018-05-29T11:26:18.324Z,90.30
2018-05-29T11:28:52.008Z,90.20
2018-05-29T11:31:25.568Z,87.90
2018-05-29T11:33:59.136Z,89.50
2018-05-29T11:36:32.782Z,87.30
2018-05-29T11:39:06.434Z,85.50
2018-05-29T11:41:40.056Z,84.30
2018-05-29T11:44:13.670Z,84.90
2018-05-29T11:46:47.243Z,87.20
2018-05-29T11:49:20.824Z,88.10
2018-05-29T11:51:54.592Z,87.10
2018-05-29T11:54:28.167Z,84.30
2018-05-29T11:57:01.674Z,85.10
2018-05-29T11:59:35.255Z,83.00
2018-05-29T12:02:09.684Z,84.40
2018-05-29T12:04:44.005Z,82.80
2018-05-29T12:07:18.319Z,79.00
2018-05-29T12:09:51.994Z,78.90
2018-05-29T12:12:25.549Z,78.00
2018-05-29T12:14:59.924Z,82.80
2018-05-29T12:17:33.584Z,82.50
2018-05-29T12:20:07.263Z,73.10
2018-05-29T12:22:40.890Z,76.50
2018-05-29T12:25:15.285Z,72.60
2018-05-29T12:27:48.864Z,73.30
2018-05-29T12:30:23.148Z,68.40
2018-05-29T12:32:56.655Z,68.30
2018-05-29T12:35:30.242Z,66.50
2018-05-29T12:38:03.823Z,67.30
2018-05-29T12:40:37.508Z,67.90
2018-05-29T12:43:12.015Z,71.40
2018-05-29T12:45:45.663Z,71.30
2018-05-29T12:48:19.219Z,69.30
2018-05-29T12:50:52.738Z,69.50
2018-05-29T12:53:26.410Z,68.80
2018-05-29T12:56:00.075Z,70.60
2018-05-29T12:58:33.757Z,72.40
2018-05-29T13:01:07.396Z,69.00
2018-05-29T13:03:41.053Z,66.30
2018-05-29T13:06:15.558Z,68.60
2018-05-29T13:08:49.902Z,69.10
2018-05-29T13:11:23.468Z,69.10
2018-05-29T13:13:57.179Z,68.50
2018-05-29T13:16:30.744Z,70.30
2018-05-29T13:19:05.205Z,67.10
2018-05-29T13:21:38.774Z,67.00
2018-05-29T13:24:12.453Z,69.30
2018-05-29T13:26:45.992Z,66.70
2018-05-29T13:29:19.564Z,68.80
2018-05-29T13:31:54.018Z,70.00
2018-05-29T13:34:27.620Z,70.00
2018-05-29T13:37:01.290Z,69.40
2018-05-29T13:39:34.993Z,66.60
2018-05-29T13:42:08.740Z,64.80
2018-05-29T13:44:42.410Z,65.00
2018-05-29T13:47:16.029Z,64.50
2018-05-29T13:49:49.708Z,64.80
2018-05-29T13:52:23.384Z,65.50
2018-05-29T13:54:57.815Z,65.80
2018-05-29T13:57:31.351Z,65.70
2018-05-29T14:00:04.868Z,64.60
2018-05-29T14:02:38.450Z,64.30
2018-05-29T14:05:12.050Z,64.90
2018-05-29T14:07:46.459Z,63.70
2018-05-29T14:10:20.803Z,64.80
2018-05-29T14:12:55.301Z,65.80
2018-05-29T14:15:28.916Z,65.80
2018-05-29T14:18:03.425Z,63.50
2018-05-29T14:20:37.030Z,63.40
2018-05-29T14:23:11.438Z,67.20
2018-05-29T14:25:45.704Z,66.60
2018-05-29T14:28:19.271Z,66.60
2018-05-29T14:30:53.344Z,65.20
2018-05-29T14:33:27.019Z,61.40
2018-05-29T14:36:01.416Z,61.10
2018-05-29T14:38:34.991Z,61.10
2018-05-29T14:41:08.722Z,62.90
2018-05-29T14:43:42.461Z,59.90
2018-05-29T14:46:16.815Z,60.20
2018-05-29T14:48:50.421Z,60.10
2018-05-29T14:51:24.081Z,60.80
2018-05-29T14:53:57.629Z,63.10
2018-05-29T14:56:32.036Z,63.90
2018-05-29T14:59:05.544Z,63.80
2018-05-29T15:01:39.250Z,66.20
2018-05-29T15:04:12.873Z,62.70
2018-05-29T15:06:46.417Z,62.90
2018-05-29T15:09:19.967Z,62.80
2018-05-29T15:11:54.466Z,63.10
2018-05-29T15:14:28.081Z,63.00
2018-05-29T15:17:01.737Z,65.50
2018-05-29T15:19:36.238Z,65.00
2018-05-29T15:22:09.819Z,64.90
2018-05-29T15:24:43.389Z,66.20
2018-05-29T15:27:16.977Z,65.20
2018-05-29T15:29:50.559Z,63.80
2018-05-29T15:32:24.096Z,65.70
2018-05-29T15:34:57.634Z,67.30
2018-05-29T15:37:31.205Z,66.50
2018-05-29T15:40:04.967Z,67.90
2018-05-29T15:42:38.512Z,68.00
2018-05-29T15:45:12.088Z,68.70
2018-05-29T15:47:45.707Z,70.40
2018-05-29T15:50:19.270Z,70.30
2018-05-29T15:52:53.161Z,68.30
2018-05-29T15:55:26.894Z,66.30
2018-05-29T15:58:00.723Z,66.80
2018-05-29T16:00:34.329Z,67.30
2018-05-29T16:03:08.110Z,66.60
2018-05-29T16:05:41.698Z,64.20
2018-05-29T16:08:15.389Z,63.80
2018-05-29T16:10:48.938Z,61.80
2018-05-29T16:13:22.753Z,61.00
2018-05-29T16:15:56.518Z,59.80
2018-05-29T16:18:30.228Z,57.80
2018-05-29T16:21:03.842Z,57.60
2018-05-29T16:23:37.432Z,56.40
2018-05-29T16:26:11.004Z,54.70
2018-05-29T16:28:44.551Z,53.90
2018-05-29T16:31:18.175Z,53.90
2018-05-29T16:33:51.907Z,54.90
2018-05-29T16:36:25.515Z,57.00
2018-05-29T16:38:59.234Z,58.40
2018-05-29T16:41:33.711Z,60.40
2018-05-29T16:44:08.017Z,63.20
2018-05-29T16:46:41.648Z,63.10
2018-05-29T16:49:15.188Z,59.50
2018-05-29T16:51:48.885Z,60.00
2018-05-29T16:54:22.442Z,59.90
2018-05-29T16:56:56.139Z,59.80
2018-05-29T16:59:29.875Z,57.90
2018-05-29T17:02:03.496Z,57.40
2018-05-29T17:04:37.033Z,56.10
2018-05-29T17:07:11.318Z,55.40
2018-05-29T17:09:44.844Z,55.30
2018-05-29T17:12:18.474Z,54.70
2018-05-29T17:14:52.113Z,54.80
2018-05-29T17:17:25.673Z,55.10
2018-05-29T17:19:59.683Z,56.00
2018-05-29T17:22:33.428Z,55.60
2018-05-29T17:25:07.040Z,55.80
2018-05-29T17:27:41.045Z,55.10
2018-05-29T17:30:15.549Z,56.30
2018-05-29T17:32:49.178Z,56.30
2018-05-29T17:35:22.734Z,55.80
2018-05-29T17:37:56.390Z,55.80
2018-05-29T17:40:30.094Z,56.10
2018-05-29T17:43:03.662Z,56.70
2018-05-29T17:45:37.309Z,57.50
2018-05-29T17:48:10.846Z,58.50
2018-05-29T17:50:44.618Z,60.10
2018-05-29T17:53:18.237Z,60.30
2018-05-29T17:55:51.806Z,60.90
2018-05-29T17:58:25.473Z,63.00
2018-05-29T18:00:59.049Z,64.70
2018-05-29T18:03:32.608Z,66.10
2018-05-29T18:06:06.279Z,66.60
2018-05-29T18:08:39.879Z,67.40
2018-05-29T18:11:13.520Z,67.80
2018-05-29T18:13:47.923Z,69.50
2018-05-29T18:16:21.586Z,69.50
2018-05-29T18:18:55.210Z,70.40
2018-05-29T18:21:28.732Z,70.30
2018-05-29T18:24:02.357Z,71.10
2018-05-29T18:26:35.859Z,71.60
2018-05-29T18:29:09.529Z,73.20
2018-05-29T18:31:43.155Z,73.20
2018-05-29T18:34:16.858Z,74.20
2018-05-29T18:36:50.443Z,75.00
2018-05-29T18:39:24.128Z,77.90
2018-05-29T18:41:57.719Z,79.90
2018-05-29T18:44:31.292Z,80.10
2018-05-29T18:47:05.053Z,80.20
2018-05-29T18:49:38.641Z,80.20
2018-05-29T18:52:12.198Z,80.00
2018-05-29T18:54:45.700Z,79.60
2018-05-29T18:57:19.343Z,80.30
2018-05-29T18:59:53.039Z,83.50
2018-05-29T19:02:26.889Z,86.40
2018-05-29T19:05:00.518Z,89.40
2018-05-29T19:07:34.204Z,89.80
2018-05-29T19:10:07.809Z,91.50
2018-05-29T19:12:41.421Z,93.20
2018-05-29T19:15:15.016Z,94.30
2018-05-29T19:17:48.681Z,96.20
2018-05-29T19:20:22.255Z,97.70
2018-05-29T19:22:56.235Z,99.90
2018-05-29T19:25:29.863Z,99.90
2018-05-29T19:28:04.459Z,99.90
2018-05-29T19:30:38.577Z,99.90
2018-05-29T19:33:12.368Z,99.90
2018-05-29T19:35:46.798Z,99.90
2018-05-29T19:38:20.567Z,99.90
2018-05-29T19:40:55.035Z,99.90
2018-05-29T19:43:28.706Z,99.90
2018-05-29T19:46:02.347Z,99.90
2018-05-29T19:48:35.957Z,99.90
2018-05-29T19:51:09.514Z,99.90
2018-05-29T19:53:43.042Z,99.90
2018-05-29T19:56:16.546Z,99.90
2018-05-29T19:58:50.144Z,99.90
2018-05-29T20:01:23.738Z,99.90
2018-05-29T20:03:57.332Z,99.90
2018-05-29T20:06:30.866Z,99.90
2018-05-29T20:09:05.438Z,99.90
2018-05-29T20:11:38.965Z,99.90
2018-05-29T20:14:12.660Z,99.90
2018-05-29T20:16:47.006Z,99.90
2018-05-29T20:19:20.574Z,99.90
2018-05-29T20:21:54.240Z,99.90
2018-05-29T20:24:27.751Z,99.90
2018-05-29T20:27:01.275Z,99.90
2018-05-29T20:29:34.964Z,99.90
2018-05-29T20:32:08.622Z,99.90
2018-05-29T20:34:42.338Z,99.90
2018-05-29T20:37:16.473Z,99.90
2018-05-29T20:39:50.061Z,99.90
2018-05-29T20:42:26.464Z,99.90
2018-05-29T20:45:00.168Z,99.90
2018-05-29T20:47:36.438Z,99.90
2018-05-29T20:50:10.208Z,99.90
2018-05-29T20:52:46.016Z,99.90
2018-05-29T20:55:19.720Z,99.90
2018-05-29T20:57:58.553Z,99.90
2018-05-29T21:00:32.166Z,99.90
2018-05-29T21:03:08.559Z,99.90
2018-05-29T21:05:42.088Z,99.90
2018-05-29T21:08:16.483Z,99.90
2018-05-29T21:10:51.001Z,99.90
2018-05-29T21:13:25.329Z,99.90
2018-05-29T21:15:59.098Z,99.90
2018-05-29T21:18:32.747Z,99.90
2018-05-29T21:21:06.332Z,99.90
2018-05-29T21:23:40.716Z,99.90
2018-05-29T21:26:14.292Z,99.90
2018-05-29T21:28:48.077Z,99.90
2018-05-29T21:31:21.595Z,99.90
2018-05-29T21:33:55.143Z,99.90
2018-05-29T21:36:28.676Z,99.90
2018-05-29T21:39:02.279Z,99.90
2018-05-29T21:41:37.360Z,99.90
2018-05-29T21:44:11.169Z,99.90
2018-05-29T21:46:44.822Z,99.90
2018-05-29T21:49:19.253Z,99.90
2018-05-29T21:51:52.902Z,99.90
2018-05-29T21:54:26.617Z,99.90
2018-05-29T21:57:00.133Z,99.90
2018-05-29T21:59:33.748Z,99.90
2018-05-29T22:02:07.411Z,99.90
2018-05-29T22:04:41.127Z,99.90
2018-05-29T22:07:14.892Z,99.90
2018-05-29T22:09:48.426Z,99.90
2018-05-29T22:12:22.097Z,99.90
2018-05-29T22:14:55.911Z,99.90
2018-05-29T22:17:29.657Z,99.90
2018-05-29T22:20:03.398Z,99.90
2018-05-29T22:22:37.285Z,99.90
2018-05-29T22:25:11.144Z,99.90
2018-05-29T22:27:44.738Z,99.90
2018-05-29T22:30:18.294Z,99.90
2018-05-29T22:32:52.565Z,99.90
2018-05-29T22:35:27.001Z,99.90
2018-05-29T22:38:00.724Z,99.90
2018-05-29T22:40:34.291Z,99.90
2018-05-29T22:43:07.851Z,99.90
2018-05-29T22:45:41.630Z,99.90
2018-05-29T22:48:16.019Z,99.90
2018-05-29T22:50:50.526Z,99.90
2018-05-29T22:53:24.256Z,99.90
2018-05-29T22:55:57.840Z,99.90
2018-05-29T22:58:31.393Z,99.90
2018-05-29T23:01:04.980Z,99.90
2018-05-29T23:03:38.650Z,99.90
2018-05-29T23:06:12.167Z,99.90
2018-05-29T23:08:45.698Z,99.90
2018-05-29T23:11:19.309Z,99.90
2018-05-29T23:13:52.965Z,99.90
2018-05-29T23:16:26.552Z,99.90
2018-05-29T23:19:00.116Z,99.90
2018-05-29T23:21:33.841Z,99.90
2018-05-29T23:24:07.375Z,99.90
2018-05-29T23:26:41.581Z,99.90
2018-05-29T23:29:15.424Z,99.90
2018-05-29T23:31:48.968Z,99.90
2018-05-29T23:34:22.623Z,99.90
2018-05-29T23:36:56.157Z,99.90
2018-05-29T23:39:29.752Z,99.90
2018-05-29T23:42:04.088Z,99.90
2018-05-29T23:44:38.413Z,99.90
2018-05-29T23:47:12.005Z,99.90
2018-05-29T23:49:46.344Z,99.90
2018-05-29T23:52:19.900Z,99.90
2018-05-29T23:54:53.432Z,99.90
2018-05-29T23:57:26.919Z,99.90
